sensor_id;sensor_type;location;lat;lon;timestamp;P1;durP1;ratioP1;P2;durP2;ratioP2
75542;SDS011;64129;53.508;10.476;2022-11-11T00:01:58;5.07;;;2.45;;
75542;SDS011;64129;53.508;10.476;2022-11-11T00:04:42;4.90;;;1.27;;
75542;SDS011;64129;53.508;10.476;2022-11-11T00:07:27;7.38;;;1.80;;
75542;SDS011;64129;53.508;10.476;2022-11-11T00:10:12;6.80;;;1.60;;
75542;SDS011;64129;53.508;10.476;2022-11-11T00:12:59;5.68;;;1.73;;
75542;SDS011;64129;53.508;10.476;2022-11-11T00:15:44;5.57;;;1.55;;
75542;SDS011;64129;53.508;10.476;2022-11-11T00:18:29;5.78;;;2.22;;
75542;SDS011;64129;53.508;10.476;2022-11-11T00:21:33;4.68;;;1.83;;
75542;SDS011;64129;53.508;10.476;2022-11-11T00:24:30;5.85;;;1.92;;
75542;SDS011;64129;53.508;10.476;2022-11-11T00:27:34;4.55;;;2.00;;
75542;SDS011;64129;53.508;10.476;2022-11-11T00:30:22;4.40;;;2.10;;
75542;SDS011;64129;53.508;10.476;2022-11-11T00:33:07;4.50;;;2.00;;
75542;SDS011;64129;53.508;10.476;2022-11-11T00:35:53;5.88;;;1.80;;
75542;SDS011;64129;53.508;10.476;2022-11-11T00:38:37;7.97;;;2.22;;
75542;SDS011;64129;53.508;10.476;2022-11-11T00:41:28;8.27;;;2.85;;
75542;SDS011;64129;53.508;10.476;2022-11-11T00:44:13;4.88;;;2.08;;
75542;SDS011;64129;53.508;10.476;2022-11-11T00:46:58;4.80;;;2.50;;
75542;SDS011;64129;53.508;10.476;2022-11-11T00:50:06;6.68;;;2.70;;
75542;SDS011;64129;53.508;10.476;2022-11-11T00:53:18;7.20;;;2.83;;
75542;SDS011;64129;53.508;10.476;2022-11-11T00:56:08;7.57;;;2.60;;
75542;SDS011;64129;53.508;10.476;2022-11-11T00:58:53;6.55;;;3.20;;
75542;SDS011;64129;53.508;10.476;2022-11-11T01:01:39;6.10;;;2.45;;
75542;SDS011;64129;53.508;10.476;2022-11-11T01:04:24;8.57;;;3.05;;
75542;SDS011;64129;53.508;10.476;2022-11-11T01:07:09;8.38;;;2.85;;
75542;SDS011;64129;53.508;10.476;2022-11-11T01:09:54;8.40;;;3.38;;
75542;SDS011;64129;53.508;10.476;2022-11-11T01:12:38;8.98;;;3.85;;
75542;SDS011;64129;53.508;10.476;2022-11-11T01:15:23;5.55;;;3.58;;
75542;SDS011;64129;53.508;10.476;2022-11-11T01:18:09;8.27;;;4.07;;
75542;SDS011;64129;53.508;10.476;2022-11-11T01:20:57;7.45;;;2.90;;
75542;SDS011;64129;53.508;10.476;2022-11-11T01:23:43;6.93;;;3.58;;
75542;SDS011;64129;53.508;10.476;2022-11-11T01:26:30;8.85;;;3.55;;
75542;SDS011;64129;53.508;10.476;2022-11-11T01:29:15;11.52;;;3.58;;
75542;SDS011;64129;53.508;10.476;2022-11-11T01:32:00;8.55;;;3.47;;
75542;SDS011;64129;53.508;10.476;2022-11-11T01:34:45;7.25;;;3.53;;
75542;SDS011;64129;53.508;10.476;2022-11-11T01:37:34;8.93;;;3.85;;
75542;SDS011;64129;53.508;10.476;2022-11-11T01:40:19;5.78;;;3.55;;
75542;SDS011;64129;53.508;10.476;2022-11-11T01:45:56;9.10;;;4.28;;
75542;SDS011;64129;53.508;10.476;2022-11-11T01:48:50;7.38;;;4.10;;
75542;SDS011;64129;53.508;10.476;2022-11-11T01:55:08;8.73;;;3.65;;
75542;SDS011;64129;53.508;10.476;2022-11-11T01:58:01;8.48;;;3.83;;
75542;SDS011;64129;53.508;10.476;2022-11-11T02:00:50;7.35;;;3.15;;
75542;SDS011;64129;53.508;10.476;2022-11-11T02:03:37;8.48;;;3.80;;
75542;SDS011;64129;53.508;10.476;2022-11-11T02:06:24;10.27;;;4.57;;
75542;SDS011;64129;53.508;10.476;2022-11-11T02:09:11;8.30;;;3.83;;
75542;SDS011;64129;53.508;10.476;2022-11-11T02:11:57;7.40;;;3.85;;
75542;SDS011;64129;53.508;10.476;2022-11-11T02:15:02;9.50;;;3.78;;
75542;SDS011;64129;53.508;10.476;2022-11-11T02:17:48;9.38;;;3.78;;
75542;SDS011;64129;53.508;10.476;2022-11-11T02:20:36;6.93;;;4.47;;
75542;SDS011;64129;53.508;10.476;2022-11-11T02:23:26;7.38;;;4.15;;
75542;SDS011;64129;53.508;10.476;2022-11-11T02:26:16;8.43;;;3.83;;
75542;SDS011;64129;53.508;10.476;2022-11-11T02:29:03;7.40;;;4.57;;
75542;SDS011;64129;53.508;10.476;2022-11-11T02:31:53;10.90;;;4.45;;
75542;SDS011;64129;53.508;10.476;2022-11-11T02:34:39;6.05;;;2.92;;
75542;SDS011;64129;53.508;10.476;2022-11-11T02:37:25;7.25;;;3.55;;
75542;SDS011;64129;53.508;10.476;2022-11-11T02:40:13;6.90;;;3.10;;
75542;SDS011;64129;53.508;10.476;2022-11-11T02:43:10;6.97;;;3.97;;
75542;SDS011;64129;53.508;10.476;2022-11-11T02:45:55;6.50;;;4.07;;
75542;SDS011;64129;53.508;10.476;2022-11-11T02:48:40;5.55;;;2.92;;
75542;SDS011;64129;53.508;10.476;2022-11-11T02:51:25;3.85;;;2.65;;
75542;SDS011;64129;53.508;10.476;2022-11-11T02:54:10;7.68;;;3.50;;
75542;SDS011;64129;53.508;10.476;2022-11-11T02:56:55;6.72;;;3.47;;
75542;SDS011;64129;53.508;10.476;2022-11-11T02:59:53;7.78;;;3.70;;
75542;SDS011;64129;53.508;10.476;2022-11-11T03:02:38;6.75;;;2.92;;
75542;SDS011;64129;53.508;10.476;2022-11-11T03:05:23;5.95;;;3.60;;
75542;SDS011;64129;53.508;10.476;2022-11-11T03:08:08;6.25;;;4.03;;
75542;SDS011;64129;53.508;10.476;2022-11-11T03:10:54;6.22;;;3.42;;
75542;SDS011;64129;53.508;10.476;2022-11-11T03:13:39;6.47;;;3.28;;
75542;SDS011;64129;53.508;10.476;2022-11-11T03:16:24;9.65;;;3.40;;
75542;SDS011;64129;53.508;10.476;2022-11-11T03:19:29;8.10;;;3.58;;
75542;SDS011;64129;53.508;10.476;2022-11-11T03:22:14;6.35;;;3.05;;
75542;SDS011;64129;53.508;10.476;2022-11-11T03:25:19;9.25;;;3.67;;
75542;SDS011;64129;53.508;10.476;2022-11-11T03:28:22;6.35;;;3.17;;
75542;SDS011;64129;53.508;10.476;2022-11-11T03:31:10;6.97;;;3.08;;
75542;SDS011;64129;53.508;10.476;2022-11-11T03:33:55;7.82;;;3.55;;
75542;SDS011;64129;53.508;10.476;2022-11-11T03:37:00;7.68;;;3.35;;
75542;SDS011;64129;53.508;10.476;2022-11-11T03:40:04;10.52;;;3.60;;
75542;SDS011;64129;53.508;10.476;2022-11-11T03:42:50;7.78;;;3.22;;
75542;SDS011;64129;53.508;10.476;2022-11-11T03:45:35;7.45;;;3.13;;
75542;SDS011;64129;53.508;10.476;2022-11-11T03:48:20;7.65;;;4.72;;
75542;SDS011;64129;53.508;10.476;2022-11-11T03:51:06;7.03;;;3.05;;
75542;SDS011;64129;53.508;10.476;2022-11-11T03:53:51;7.70;;;3.53;;
75542;SDS011;64129;53.508;10.476;2022-11-11T03:56:36;4.93;;;2.83;;
75542;SDS011;64129;53.508;10.476;2022-11-11T03:59:21;6.50;;;3.40;;
75542;SDS011;64129;53.508;10.476;2022-11-11T04:02:07;7.32;;;3.30;;
75542;SDS011;64129;53.508;10.476;2022-11-11T04:05:15;7.35;;;3.70;;
75542;SDS011;64129;53.508;10.476;2022-11-11T04:08:26;7.97;;;3.35;;
75542;SDS011;64129;53.508;10.476;2022-11-11T04:11:30;11.48;;;4.75;;
75542;SDS011;64129;53.508;10.476;2022-11-11T04:14:20;5.88;;;3.13;;
75542;SDS011;64129;53.508;10.476;2022-11-11T04:17:24;5.70;;;3.50;;
75542;SDS011;64129;53.508;10.476;2022-11-11T04:20:09;9.32;;;3.70;;
75542;SDS011;64129;53.508;10.476;2022-11-11T04:23:13;8.18;;;2.90;;
75542;SDS011;64129;53.508;10.476;2022-11-11T04:25:59;9.10;;;3.92;;
75542;SDS011;64129;53.508;10.476;2022-11-11T04:28:44;10.13;;;3.95;;
75542;SDS011;64129;53.508;10.476;2022-11-11T04:31:48;7.45;;;3.47;;
75542;SDS011;64129;53.508;10.476;2022-11-11T04:34:53;7.53;;;3.58;;
75542;SDS011;64129;53.508;10.476;2022-11-11T04:37:46;10.95;;;4.07;;
75542;SDS011;64129;53.508;10.476;2022-11-11T04:40:35;11.13;;;4.05;;
75542;SDS011;64129;53.508;10.476;2022-11-11T04:43:39;6.03;;;4.20;;
75542;SDS011;64129;53.508;10.476;2022-11-11T04:46:43;7.82;;;3.33;;
75542;SDS011;64129;53.508;10.476;2022-11-11T04:49:28;9.15;;;3.90;;
75542;SDS011;64129;53.508;10.476;2022-11-11T04:52:13;8.23;;;4.55;;
75542;SDS011;64129;53.508;10.476;2022-11-11T04:55:10;8.48;;;4.38;;
75542;SDS011;64129;53.508;10.476;2022-11-11T04:58:15;7.57;;;4.40;;
75542;SDS011;64129;53.508;10.476;2022-11-11T05:01:01;7.35;;;4.25;;
75542;SDS011;64129;53.508;10.476;2022-11-11T05:03:46;8.70;;;4.22;;
75542;SDS011;64129;53.508;10.476;2022-11-11T05:06:31;10.85;;;4.38;;
75542;SDS011;64129;53.508;10.476;2022-11-11T05:09:36;9.88;;;4.72;;
75542;SDS011;64129;53.508;10.476;2022-11-11T05:12:21;8.93;;;4.63;;
75542;SDS011;64129;53.508;10.476;2022-11-11T05:15:06;8.20;;;4.80;;
75542;SDS011;64129;53.508;10.476;2022-11-11T05:18:11;8.10;;;4.47;;
75542;SDS011;64129;53.508;10.476;2022-11-11T05:21:15;7.65;;;4.50;;
75542;SDS011;64129;53.508;10.476;2022-11-11T05:24:06;12.73;;;4.63;;
75542;SDS011;64129;53.508;10.476;2022-11-11T05:27:10;8.70;;;4.10;;
75542;SDS011;64129;53.508;10.476;2022-11-11T05:29:55;7.07;;;4.82;;
75542;SDS011;64129;53.508;10.476;2022-11-11T05:32:40;11.75;;;4.85;;
75542;SDS011;64129;53.508;10.476;2022-11-11T05:35:25;9.60;;;4.75;;
75542;SDS011;64129;53.508;10.476;2022-11-11T05:38:10;9.55;;;3.63;;
75542;SDS011;64129;53.508;10.476;2022-11-11T05:41:04;10.48;;;4.43;;
75542;SDS011;64129;53.508;10.476;2022-11-11T05:46:35;8.75;;;5.20;;
75542;SDS011;64129;53.508;10.476;2022-11-11T05:49:21;11.93;;;4.60;;
75542;SDS011;64129;53.508;10.476;2022-11-11T05:52:08;6.45;;;4.90;;
75542;SDS011;64129;53.508;10.476;2022-11-11T05:54:54;9.52;;;5.35;;
75542;SDS011;64129;53.508;10.476;2022-11-11T05:57:39;7.60;;;4.47;;
75542;SDS011;64129;53.508;10.476;2022-11-11T06:00:24;9.18;;;4.70;;
75542;SDS011;64129;53.508;10.476;2022-11-11T06:03:09;10.18;;;5.63;;
75542;SDS011;64129;53.508;10.476;2022-11-11T06:05:54;11.18;;;5.05;;
75542;SDS011;64129;53.508;10.476;2022-11-11T06:08:39;11.13;;;5.25;;
75542;SDS011;64129;53.508;10.476;2022-11-11T06:11:24;13.90;;;5.82;;
75542;SDS011;64129;53.508;10.476;2022-11-11T06:14:12;10.30;;;5.50;;
75542;SDS011;64129;53.508;10.476;2022-11-11T06:16:57;11.27;;;5.40;;
75542;SDS011;64129;53.508;10.476;2022-11-11T06:19:42;12.23;;;5.72;;
75542;SDS011;64129;53.508;10.476;2022-11-11T06:22:27;11.32;;;6.38;;
75542;SDS011;64129;53.508;10.476;2022-11-11T06:25:32;9.13;;;5.32;;
75542;SDS011;64129;53.508;10.476;2022-11-11T06:28:36;7.50;;;4.80;;
75542;SDS011;64129;53.508;10.476;2022-11-11T06:31:28;12.07;;;5.97;;
75542;SDS011;64129;53.508;10.476;2022-11-11T06:34:13;13.20;;;6.65;;
75542;SDS011;64129;53.508;10.476;2022-11-11T06:36:58;17.10;;;6.68;;
75542;SDS011;64129;53.508;10.476;2022-11-11T06:39:43;12.27;;;5.78;;
75542;SDS011;64129;53.508;10.476;2022-11-11T06:42:28;15.52;;;6.63;;
75542;SDS011;64129;53.508;10.476;2022-11-11T06:45:12;10.30;;;5.10;;
75542;SDS011;64129;53.508;10.476;2022-11-11T06:47:57;8.10;;;5.50;;
75542;SDS011;64129;53.508;10.476;2022-11-11T06:50:43;12.65;;;6.72;;
75542;SDS011;64129;53.508;10.476;2022-11-11T06:53:28;10.95;;;5.95;;
75542;SDS011;64129;53.508;10.476;2022-11-11T06:56:13;11.73;;;6.65;;
75542;SDS011;64129;53.508;10.476;2022-11-11T06:58:58;11.30;;;6.22;;
75542;SDS011;64129;53.508;10.476;2022-11-11T07:01:43;11.63;;;6.25;;
75542;SDS011;64129;53.508;10.476;2022-11-11T07:04:28;14.30;;;6.60;;
75542;SDS011;64129;53.508;10.476;2022-11-11T07:07:13;12.75;;;6.53;;
75542;SDS011;64129;53.508;10.476;2022-11-11T07:09:58;14.20;;;7.05;;
75542;SDS011;64129;53.508;10.476;2022-11-11T07:12:43;14.20;;;7.18;;
75542;SDS011;64129;53.508;10.476;2022-11-11T07:15:28;11.65;;;6.03;;
75542;SDS011;64129;53.508;10.476;2022-11-11T07:18:13;14.80;;;6.45;;
75542;SDS011;64129;53.508;10.476;2022-11-11T07:20:58;14.85;;;7.25;;
75542;SDS011;64129;53.508;10.476;2022-11-11T07:23:43;12.25;;;6.22;;
75542;SDS011;64129;53.508;10.476;2022-11-11T07:26:28;11.48;;;5.97;;
75542;SDS011;64129;53.508;10.476;2022-11-11T07:29:13;9.88;;;6.00;;
75542;SDS011;64129;53.508;10.476;2022-11-11T07:31:58;12.30;;;6.50;;
75542;SDS011;64129;53.508;10.476;2022-11-11T07:34:43;12.95;;;7.20;;
75542;SDS011;64129;53.508;10.476;2022-11-11T07:37:31;10.65;;;6.55;;
75542;SDS011;64129;53.508;10.476;2022-11-11T07:40:16;15.52;;;7.93;;
75542;SDS011;64129;53.508;10.476;2022-11-11T07:43:03;13.30;;;7.35;;
75542;SDS011;64129;53.508;10.476;2022-11-11T07:45:48;15.43;;;7.78;;
75542;SDS011;64129;53.508;10.476;2022-11-11T07:48:32;13.18;;;7.20;;
75542;SDS011;64129;53.508;10.476;2022-11-11T07:51:18;16.67;;;8.45;;
75542;SDS011;64129;53.508;10.476;2022-11-11T07:54:03;15.45;;;7.95;;
75542;SDS011;64129;53.508;10.476;2022-11-11T07:56:48;18.83;;;8.55;;
75542;SDS011;64129;53.508;10.476;2022-11-11T07:59:33;12.73;;;6.93;;
75542;SDS011;64129;53.508;10.476;2022-11-11T08:02:18;12.43;;;8.10;;
75542;SDS011;64129;53.508;10.476;2022-11-11T08:05:02;12.45;;;7.65;;
75542;SDS011;64129;53.508;10.476;2022-11-11T08:07:48;11.18;;;6.70;;
75542;SDS011;64129;53.508;10.476;2022-11-11T08:10:33;11.02;;;7.55;;
75542;SDS011;64129;53.508;10.476;2022-11-11T08:13:19;12.25;;;7.70;;
75542;SDS011;64129;53.508;10.476;2022-11-11T08:16:22;16.15;;;8.48;;
75542;SDS011;64129;53.508;10.476;2022-11-11T08:19:07;16.88;;;8.93;;
75542;SDS011;64129;53.508;10.476;2022-11-11T08:21:53;16.67;;;8.40;;
75542;SDS011;64129;53.508;10.476;2022-11-11T08:24:38;16.67;;;9.20;;
75542;SDS011;64129;53.508;10.476;2022-11-11T08:27:43;16.08;;;8.77;;
75542;SDS011;64129;53.508;10.476;2022-11-11T08:30:28;17.23;;;9.40;;
75542;SDS011;64129;53.508;10.476;2022-11-11T08:33:13;13.98;;;8.02;;
75542;SDS011;64129;53.508;10.476;2022-11-11T08:36:19;16.85;;;9.20;;
75542;SDS011;64129;53.508;10.476;2022-11-11T08:39:05;21.45;;;9.50;;
75542;SDS011;64129;53.508;10.476;2022-11-11T08:41:50;11.95;;;8.18;;
75542;SDS011;64129;53.508;10.476;2022-11-11T08:44:35;18.40;;;9.65;;
75542;SDS011;64129;53.508;10.476;2022-11-11T08:47:20;17.40;;;9.57;;
75542;SDS011;64129;53.508;10.476;2022-11-11T08:50:07;15.95;;;8.52;;
75542;SDS011;64129;53.508;10.476;2022-11-11T08:52:53;17.10;;;10.02;;
75542;SDS011;64129;53.508;10.476;2022-11-11T08:55:38;16.70;;;9.32;;
75542;SDS011;64129;53.508;10.476;2022-11-11T08:58:23;15.13;;;9.38;;
75542;SDS011;64129;53.508;10.476;2022-11-11T09:01:11;14.63;;;7.00;;
75542;SDS011;64129;53.508;10.476;2022-11-11T09:03:57;16.15;;;9.02;;
75542;SDS011;64129;53.508;10.476;2022-11-11T09:06:46;16.95;;;10.02;;
75542;SDS011;64129;53.508;10.476;2022-11-11T09:09:32;14.52;;;8.65;;
75542;SDS011;64129;53.508;10.476;2022-11-11T09:12:16;13.57;;;8.82;;
75542;SDS011;64129;53.508;10.476;2022-11-11T09:15:02;13.13;;;8.10;;
75542;SDS011;64129;53.508;10.476;2022-11-11T09:17:47;17.25;;;9.73;;
75542;SDS011;64129;53.508;10.476;2022-11-11T09:20:32;15.57;;;10.05;;
75542;SDS011;64129;53.508;10.476;2022-11-11T09:23:17;13.85;;;8.25;;
75542;SDS011;64129;53.508;10.476;2022-11-11T09:26:02;15.30;;;9.75;;
75542;SDS011;64129;53.508;10.476;2022-11-11T09:28:50;16.55;;;9.13;;
75542;SDS011;64129;53.508;10.476;2022-11-11T09:31:35;12.95;;;8.20;;
75542;SDS011;64129;53.508;10.476;2022-11-11T09:34:27;14.27;;;8.63;;
75542;SDS011;64129;53.508;10.476;2022-11-11T09:37:12;19.25;;;9.80;;
75542;SDS011;64129;53.508;10.476;2022-11-11T09:39:56;14.82;;;9.52;;
75542;SDS011;64129;53.508;10.476;2022-11-11T09:42:43;13.00;;;7.22;;
75542;SDS011;64129;53.508;10.476;2022-11-11T09:45:45;15.27;;;9.57;;
75542;SDS011;64129;53.508;10.476;2022-11-11T09:52:17;15.10;;;8.00;;
75542;SDS011;64129;53.508;10.476;2022-11-11T09:55:05;17.25;;;8.57;;
75542;SDS011;64129;53.508;10.476;2022-11-11T09:58:04;16.63;;;8.55;;
75542;SDS011;64129;53.508;10.476;2022-11-11T10:01:01;13.60;;;7.65;;
75542;SDS011;64129;53.508;10.476;2022-11-11T10:07:08;15.70;;;9.80;;
75542;SDS011;64129;53.508;10.476;2022-11-11T10:10:01;14.27;;;9.40;;
75542;SDS011;64129;53.508;10.476;2022-11-11T10:12:53;15.30;;;9.05;;
75542;SDS011;64129;53.508;10.476;2022-11-11T10:15:44;17.60;;;9.52;;
75542;SDS011;64129;53.508;10.476;2022-11-11T10:21:36;14.43;;;8.70;;
75542;SDS011;64129;53.508;10.476;2022-11-11T10:24:59;17.33;;;8.75;;
75542;SDS011;64129;53.508;10.476;2022-11-11T10:27:52;15.18;;;9.23;;
75542;SDS011;64129;53.508;10.476;2022-11-11T10:30:40;18.65;;;8.32;;
75542;SDS011;64129;53.508;10.476;2022-11-11T10:33:27;14.98;;;8.75;;
75542;SDS011;64129;53.508;10.476;2022-11-11T10:36:16;15.75;;;9.70;;
75542;SDS011;64129;53.508;10.476;2022-11-11T10:39:03;14.23;;;8.68;;
75542;SDS011;64129;53.508;10.476;2022-11-11T10:41:49;14.73;;;9.95;;
75542;SDS011;64129;53.508;10.476;2022-11-11T10:44:35;15.05;;;8.07;;
75542;SDS011;64129;53.508;10.476;2022-11-11T10:50:31;15.02;;;9.10;;
75542;SDS011;64129;53.508;10.476;2022-11-11T10:56:29;16.88;;;8.68;;
75542;SDS011;64129;53.508;10.476;2022-11-11T10:59:23;16.45;;;10.02;;
75542;SDS011;64129;53.508;10.476;2022-11-11T11:02:18;16.50;;;9.30;;
75542;SDS011;64129;53.508;10.476;2022-11-11T11:05:13;12.90;;;7.97;;
75542;SDS011;64129;53.508;10.476;2022-11-11T11:08:07;16.02;;;8.75;;
75542;SDS011;64129;53.508;10.476;2022-11-11T11:10:57;16.35;;;9.65;;
75542;SDS011;64129;53.508;10.476;2022-11-11T11:13:47;16.10;;;9.75;;
75542;SDS011;64129;53.508;10.476;2022-11-11T11:16:37;17.02;;;10.48;;
75542;SDS011;64129;53.508;10.476;2022-11-11T11:19:28;16.80;;;8.90;;
75542;SDS011;64129;53.508;10.476;2022-11-11T11:22:13;14.25;;;9.63;;
75542;SDS011;64129;53.508;10.476;2022-11-11T11:25:08;16.48;;;10.27;;
75542;SDS011;64129;53.508;10.476;2022-11-11T11:28:09;15.13;;;8.57;;
75542;SDS011;64129;53.508;10.476;2022-11-11T11:31:03;14.27;;;8.48;;
75542;SDS011;64129;53.508;10.476;2022-11-11T11:33:51;13.77;;;9.70;;
75542;SDS011;64129;53.508;10.476;2022-11-11T11:36:40;14.88;;;9.38;;
75542;SDS011;64129;53.508;10.476;2022-11-11T11:39:33;15.73;;;9.25;;
75542;SDS011;64129;53.508;10.476;2022-11-11T11:42:29;15.40;;;9.07;;
75542;SDS011;64129;53.508;10.476;2022-11-11T11:45:20;11.02;;;7.25;;
75542;SDS011;64129;53.508;10.476;2022-11-11T11:57:43;17.15;;;8.05;;
75542;SDS011;64129;53.508;10.476;2022-11-11T12:00:37;12.75;;;7.78;;
75542;SDS011;64129;53.508;10.476;2022-11-11T12:03:42;14.85;;;8.75;;
75542;SDS011;64129;53.508;10.476;2022-11-11T12:06:46;13.20;;;8.18;;
75542;SDS011;64129;53.508;10.476;2022-11-11T12:09:45;11.88;;;8.15;;
75542;SDS011;64129;53.508;10.476;2022-11-11T12:12:47;15.48;;;8.75;;
75542;SDS011;64129;53.508;10.476;2022-11-11T12:19:05;12.45;;;7.30;;
75542;SDS011;64129;53.508;10.476;2022-11-11T12:22:24;13.40;;;8.00;;
75542;SDS011;64129;53.508;10.476;2022-11-11T12:25:41;10.80;;;7.00;;
75542;SDS011;64129;53.508;10.476;2022-11-11T12:28:43;12.35;;;7.10;;
75542;SDS011;64129;53.508;10.476;2022-11-11T12:44:16;10.00;;;6.20;;
75542;SDS011;64129;53.508;10.476;2022-11-11T12:50:09;11.43;;;6.80;;
75542;SDS011;64129;53.508;10.476;2022-11-11T12:53:10;10.38;;;6.10;;
75542;SDS011;64129;53.508;10.476;2022-11-11T13:14:01;8.07;;;5.97;;
75542;SDS011;64129;53.508;10.476;2022-11-11T13:16:54;10.50;;;5.65;;
75542;SDS011;64129;53.508;10.476;2022-11-11T13:19:45;8.38;;;5.25;;
75542;SDS011;64129;53.508;10.476;2022-11-11T13:22:35;8.40;;;5.90;;
75542;SDS011;64129;53.508;10.476;2022-11-11T13:25:21;9.85;;;6.13;;
75542;SDS011;64129;53.508;10.476;2022-11-11T13:28:12;9.23;;;6.20;;
75542;SDS011;64129;53.508;10.476;2022-11-11T13:31:10;7.55;;;5.80;;
75542;SDS011;64129;53.508;10.476;2022-11-11T13:34:15;7.15;;;5.40;;
75542;SDS011;64129;53.508;10.476;2022-11-11T13:37:02;11.00;;;6.00;;
75542;SDS011;64129;53.508;10.476;2022-11-11T13:39:49;9.68;;;6.00;;
75542;SDS011;64129;53.508;10.476;2022-11-11T13:42:40;9.75;;;6.32;;
75542;SDS011;64129;53.508;10.476;2022-11-11T13:45:37;11.15;;;5.63;;
75542;SDS011;64129;53.508;10.476;2022-11-11T13:48:27;9.70;;;5.85;;
75542;SDS011;64129;53.508;10.476;2022-11-11T13:51:20;8.43;;;5.60;;
75542;SDS011;64129;53.508;10.476;2022-11-11T13:54:25;9.52;;;6.22;;
75542;SDS011;64129;53.508;10.476;2022-11-11T14:00:05;12.68;;;7.45;;
75542;SDS011;64129;53.508;10.476;2022-11-11T14:09:06;9.40;;;6.45;;
75542;SDS011;64129;53.508;10.476;2022-11-11T14:11:51;10.88;;;6.75;;
75542;SDS011;64129;53.508;10.476;2022-11-11T14:21:01;10.40;;;6.55;;
75542;SDS011;64129;53.508;10.476;2022-11-11T14:23:46;10.00;;;6.75;;
75542;SDS011;64129;53.508;10.476;2022-11-11T14:26:37;10.30;;;6.30;;
75542;SDS011;64129;53.508;10.476;2022-11-11T14:29:22;9.10;;;6.13;;
75542;SDS011;64129;53.508;10.476;2022-11-11T14:35:25;11.20;;;7.00;;
75542;SDS011;64129;53.508;10.476;2022-11-11T14:38:29;10.10;;;6.80;;
75542;SDS011;64129;53.508;10.476;2022-11-11T14:44:37;9.75;;;6.15;;
75542;SDS011;64129;53.508;10.476;2022-11-11T14:47:34;8.35;;;6.72;;
75542;SDS011;64129;53.508;10.476;2022-11-11T14:53:16;10.35;;;6.65;;
75542;SDS011;64129;53.508;10.476;2022-11-11T14:56:03;9.80;;;6.30;;
75542;SDS011;64129;53.508;10.476;2022-11-11T14:58:56;11.75;;;7.03;;
75542;SDS011;64129;53.508;10.476;2022-11-11T15:01:49;10.00;;;6.97;;
75542;SDS011;64129;53.508;10.476;2022-11-11T15:04:37;10.27;;;6.72;;
75542;SDS011;64129;53.508;10.476;2022-11-11T15:10:23;11.48;;;6.88;;
75542;SDS011;64129;53.508;10.476;2022-11-11T15:22:53;9.80;;;6.70;;
75542;SDS011;64129;53.508;10.476;2022-11-11T15:26:06;9.93;;;6.30;;
75542;SDS011;64129;53.508;10.476;2022-11-11T15:29:16;11.05;;;6.95;;
75542;SDS011;64129;53.508;10.476;2022-11-11T15:35:52;12.57;;;7.05;;
75542;SDS011;64129;53.508;10.476;2022-11-11T15:38:44;10.88;;;6.30;;
75542;SDS011;64129;53.508;10.476;2022-11-11T15:41:35;11.00;;;7.35;;
75542;SDS011;64129;53.508;10.476;2022-11-11T15:44:23;8.88;;;6.90;;
75542;SDS011;64129;53.508;10.476;2022-11-11T15:47:12;9.55;;;6.88;;
75542;SDS011;64129;53.508;10.476;2022-11-11T15:49:58;9.65;;;6.22;;
75542;SDS011;64129;53.508;10.476;2022-11-11T15:52:44;11.65;;;6.47;;
75542;SDS011;64129;53.508;10.476;2022-11-11T15:55:30;8.77;;;6.28;;
75542;SDS011;64129;53.508;10.476;2022-11-11T15:58:24;11.90;;;8.27;;
75542;SDS011;64129;53.508;10.476;2022-11-11T16:01:14;13.50;;;8.32;;
75542;SDS011;64129;53.508;10.476;2022-11-11T16:03:59;10.43;;;8.18;;
75542;SDS011;64129;53.508;10.476;2022-11-11T16:06:45;13.95;;;9.45;;
75542;SDS011;64129;53.508;10.476;2022-11-11T16:09:30;11.80;;;9.85;;
75542;SDS011;64129;53.508;10.476;2022-11-11T16:12:21;11.82;;;9.95;;
75542;SDS011;64129;53.508;10.476;2022-11-11T16:15:09;14.88;;;10.05;;
75542;SDS011;64129;53.508;10.476;2022-11-11T16:18:09;14.10;;;9.43;;
75542;SDS011;64129;53.508;10.476;2022-11-11T16:23:58;14.45;;;9.85;;
75542;SDS011;64129;53.508;10.476;2022-11-11T16:26:44;16.38;;;10.20;;
75542;SDS011;64129;53.508;10.476;2022-11-11T16:29:37;14.27;;;9.45;;
75542;SDS011;64129;53.508;10.476;2022-11-11T16:38:29;18.15;;;9.77;;
75542;SDS011;64129;53.508;10.476;2022-11-11T16:41:28;12.50;;;9.70;;
75542;SDS011;64129;53.508;10.476;2022-11-11T16:45:01;11.43;;;8.88;;
75542;SDS011;64129;53.508;10.476;2022-11-11T16:47:47;13.43;;;9.80;;
75542;SDS011;64129;53.508;10.476;2022-11-11T16:50:33;15.77;;;10.30;;
75542;SDS011;64129;53.508;10.476;2022-11-11T16:53:42;18.58;;;11.20;;
75542;SDS011;64129;53.508;10.476;2022-11-11T16:56:36;16.98;;;12.50;;
75542;SDS011;64129;53.508;10.476;2022-11-11T16:59:37;19.38;;;12.85;;
75542;SDS011;64129;53.508;10.476;2022-11-11T17:02:27;19.35;;;14.45;;
75542;SDS011;64129;53.508;10.476;2022-11-11T17:05:13;19.50;;;14.30;;
75542;SDS011;64129;53.508;10.476;2022-11-11T17:07:58;19.45;;;13.18;;
75542;SDS011;64129;53.508;10.476;2022-11-11T17:10:43;20.73;;;13.63;;
75542;SDS011;64129;53.508;10.476;2022-11-11T17:13:28;15.90;;;13.00;;
75542;SDS011;64129;53.508;10.476;2022-11-11T17:16:13;18.98;;;12.57;;
75542;SDS011;64129;53.508;10.476;2022-11-11T17:18:59;21.27;;;13.82;;
75542;SDS011;64129;53.508;10.476;2022-11-11T17:21:44;20.95;;;12.85;;
75542;SDS011;64129;53.508;10.476;2022-11-11T17:24:29;18.35;;;11.98;;
75542;SDS011;64129;53.508;10.476;2022-11-11T17:27:14;14.95;;;10.63;;
75542;SDS011;64129;53.508;10.476;2022-11-11T17:29:59;17.75;;;12.15;;
75542;SDS011;64129;53.508;10.476;2022-11-11T17:32:46;17.23;;;12.23;;
75542;SDS011;64129;53.508;10.476;2022-11-11T17:35:32;18.58;;;12.10;;
75542;SDS011;64129;53.508;10.476;2022-11-11T17:38:17;17.27;;;11.55;;
75542;SDS011;64129;53.508;10.476;2022-11-11T17:41:02;17.00;;;11.50;;
75542;SDS011;64129;53.508;10.476;2022-11-11T17:43:48;16.98;;;10.88;;
75542;SDS011;64129;53.508;10.476;2022-11-11T17:46:33;15.65;;;11.38;;
75542;SDS011;64129;53.508;10.476;2022-11-11T17:49:18;18.67;;;11.85;;
75542;SDS011;64129;53.508;10.476;2022-11-11T17:52:03;16.40;;;10.93;;
75542;SDS011;64129;53.508;10.476;2022-11-11T17:54:49;16.08;;;10.57;;
75542;SDS011;64129;53.508;10.476;2022-11-11T17:57:34;15.50;;;11.15;;
75542;SDS011;64129;53.508;10.476;2022-11-11T18:00:19;15.77;;;10.30;;
75542;SDS011;64129;53.508;10.476;2022-11-11T18:03:04;16.08;;;10.57;;
75542;SDS011;64129;53.508;10.476;2022-11-11T18:05:52;14.55;;;10.00;;
75542;SDS011;64129;53.508;10.476;2022-11-11T18:08:38;12.90;;;10.75;;
75542;SDS011;64129;53.508;10.476;2022-11-11T18:11:23;15.73;;;10.18;;
75542;SDS011;64129;53.508;10.476;2022-11-11T18:14:08;15.43;;;9.90;;
75542;SDS011;64129;53.508;10.476;2022-11-11T18:16:53;14.35;;;9.80;;
75542;SDS011;64129;53.508;10.476;2022-11-11T18:19:38;18.95;;;10.50;;
75542;SDS011;64129;53.508;10.476;2022-11-11T18:22:23;14.02;;;9.63;;
75542;SDS011;64129;53.508;10.476;2022-11-11T18:25:08;18.70;;;10.70;;
75542;SDS011;64129;53.508;10.476;2022-11-11T18:27:53;13.82;;;10.30;;
75542;SDS011;64129;53.508;10.476;2022-11-11T18:30:38;13.15;;;10.48;;
75542;SDS011;64129;53.508;10.476;2022-11-11T18:33:23;14.73;;;9.80;;
75542;SDS011;64129;53.508;10.476;2022-11-11T18:36:09;13.10;;;9.80;;
75542;SDS011;64129;53.508;10.476;2022-11-11T18:38:57;15.50;;;9.68;;
75542;SDS011;64129;53.508;10.476;2022-11-11T18:41:42;15.43;;;10.00;;